^^
Meteo Knjazevac Station Historical Data
Daily Summary for January 28, 2022 Units:  Both    English   Metric
Daily Weekly Monthly Yearly Custom
  High: Low: Average:
Temperature: 31.8 °F /  -0.1 °C 28.8 °F /  -1.8 °C 30.7 °F /  -0.7 °C
Dew Point: 26.8 °F /  -2.9 °C 24.9 °F /  -3.9 °C 25.9 °F /  -3.4 °C
Humidity: 86% 80% 82%
Wind Speed: 8mph /  12.9km/h - 3.2mph /  5.1km/h
Wind Gust: 14mph /  22.5km/h - -
Wind- - SSE
Pressure: 30.23 in /  1023.6 hPa 30.15 in /  1020.9 hPa -
Precipitation: 0.00 in /  0 mm    
Historical Graphs
 
 
Tabular Data for January 28, 2022
Time Temperature Dew Point Pressure Wind Wind Speed Wind Gust Humidity Rainfall Rate (Hourly) solar Conditions
00:00 31.1 °F /  -0.5 °C 26.8 °F /  -2.9 °C 30.23in /  1023.6hPa SE 3mph /  4.8km/h 11mph /  17.7km/h 84% 0.00in /  0mm 0 W/m2
00:10 31.1 °F /  -0.5 °C 26.8 °F /  -2.9 °C 30.22in /  1023.2hPa SE 5mph /  8km/h 8mph /  12.9km/h 84% 0.00in /  0mm 0 W/m2
00:20 31.1 °F /  -0.5 °C 26.5 °F /  -3.1 °C 30.22in /  1023.2hPa SE 3mph /  4.8km/h 12mph /  19.3km/h 83% 0.00in /  0mm 0 W/m2
00:30 30.9 °F /  -0.6 °C 26.4 °F /  -3.1 °C 30.22in /  1023.2hPa SE 3mph /  4.8km/h 6mph /  9.7km/h 83% 0.00in /  0mm 0 W/m2
00:40 30.6 °F /  -0.8 °C 26.3 °F /  -3.2 °C 30.22in /  1023.2hPa Calm   6mph /  9.7km/h 84% 0.00in /  0mm 0 W/m2
00:50 30 °F /  -1.1 °C 25.8 °F /  -3.4 °C 30.21in /  1022.9hPa Calm   2mph /  3.2km/h 84% 0.00in /  0mm 0 W/m2
01:00 29.8 °F /  -1.2 °C 25.6 °F /  -3.6 °C 30.21in /  1022.9hPa South 2mph /  3.2km/h 5mph /  8km/h 84% 0.00in /  0mm 0 W/m2
01:10 29.7 °F /  -1.3 °C 25.4 °F /  -3.7 °C 30.21in /  1022.9hPa SE 2mph /  3.2km/h 5mph /  8km/h 84% 0.00in /  0mm 0 W/m2
01:20 29.5 °F /  -1.4 °C 25.5 °F /  -3.6 °C 30.21in /  1022.9hPa SSE 2mph /  3.2km/h 7mph /  11.3km/h 85% 0.00in /  0mm 0 W/m2
01:30 29.5 °F /  -1.4 °C 25.5 °F /  -3.6 °C 30.20in /  1022.6hPa SSE 3mph /  4.8km/h 8mph /  12.9km/h 85% 0.00in /  0mm 0 W/m2
01:40 29.3 °F /  -1.5 °C 25.4 °F /  -3.7 °C 30.20in /  1022.6hPa SSW 1mph /  1.6km/h 5mph /  8km/h 85% 0.00in /  0mm 0 W/m2
01:50 28.9 °F /  -1.7 °C 25 °F /  -3.9 °C 30.20in /  1022.6hPa SSE 2mph /  3.2km/h 5mph /  8km/h 85% 0.00in /  0mm 0 W/m2
02:00 28.9 °F /  -1.7 °C 25 °F /  -3.9 °C 30.19in /  1022.2hPa SE 2mph /  3.2km/h 6mph /  9.7km/h 85% 0.00in /  0mm 0 W/m2
02:10 28.8 °F /  -1.8 °C 25.1 °F /  -3.8 °C 30.19in /  1022.2hPa SSE 3mph /  4.8km/h 7mph /  11.3km/h 86% 0.00in /  0mm 0 W/m2
02:20 28.9 °F /  -1.7 °C 25.3 °F /  -3.7 °C 30.18in /  1021.9hPa SE 3mph /  4.8km/h 8mph /  12.9km/h 86% 0.00in /  0mm 0 W/m2
02:30 29.5 °F /  -1.4 °C 25.8 °F /  -3.4 °C 30.18in /  1021.9hPa SSE 3mph /  4.8km/h 10mph /  16.1km/h 86% 0.00in /  0mm 0 W/m2
02:40 30 °F /  -1.1 °C 26.1 °F /  -3.3 °C 30.18in /  1021.9hPa SE 1mph /  1.6km/h 8mph /  12.9km/h 85% 0.00in /  0mm 0 W/m2
02:50 30.1 °F /  -1.1 °C 26.2 °F /  -3.2 °C 30.18in /  1021.9hPa SE 8mph /  12.9km/h 13mph /  20.9km/h 85% 0.00in /  0mm 0 W/m2
03:00 30.8 °F /  -0.7 °C 26.6 °F /  -3 °C 30.17in /  1021.6hPa SE 3mph /  4.8km/h 7mph /  11.3km/h 84% 0.00in /  0mm 0 W/m2
03:10 31.1 °F /  -0.5 °C 26.5 °F /  -3.1 °C 30.17in /  1021.6hPa SE 2mph /  3.2km/h 12mph /  19.3km/h 83% 0.00in /  0mm 0 W/m2
03:20 31.3 °F /  -0.4 °C 26.7 °F /  -2.9 °C 30.16in /  1021.2hPa SE 3mph /  4.8km/h 9mph /  14.5km/h 83% 0.00in /  0mm 0 W/m2
03:30 31.1 °F /  -0.5 °C 26.5 °F /  -3.1 °C 30.16in /  1021.2hPa SSE 5mph /  8km/h 8mph /  12.9km/h 83% 0.00in /  0mm 0 W/m2
03:40 31.3 °F /  -0.4 °C 26.7 °F /  -2.9 °C 30.16in /  1021.2hPa SSE 1mph /  1.6km/h 8mph /  12.9km/h 83% 0.00in /  0mm 0 W/m2
03:50 31.5 °F /  -0.3 °C 26.3 °F /  -3.2 °C 30.15in /  1020.9hPa SE 7mph /  11.3km/h 12mph /  19.3km/h 81% 0.00in /  0mm 0 W/m2
04:00 31.5 °F /  -0.3 °C 26.3 °F /  -3.2 °C 30.16in /  1021.2hPa SE 5mph /  8km/h 12mph /  19.3km/h 81% 0.00in /  0mm 0 W/m2
04:10 31.5 °F /  -0.3 °C 26.3 °F /  -3.2 °C 30.16in /  1021.2hPa SE 2mph /  3.2km/h 12mph /  19.3km/h 81% 0.00in /  0mm 0 W/m2
04:20 31.3 °F /  -0.4 °C 26.1 °F /  -3.3 °C 30.16in /  1021.2hPa SSE 3mph /  4.8km/h 9mph /  14.5km/h 81% 0.00in /  0mm 0 W/m2
04:30 31.6 °F /  -0.2 °C 26.5 °F /  -3.1 °C 30.16in /  1021.2hPa SE 6mph /  9.7km/h 11mph /  17.7km/h 81% 0.00in /  0mm 0 W/m2
04:40 31.8 °F /  -0.1 °C 26.4 °F /  -3.1 °C 30.16in /  1021.2hPa SE 2mph /  3.2km/h 12mph /  19.3km/h 80% 0.00in /  0mm 0 W/m2
04:50 31.8 °F /  -0.1 °C 26.4 °F /  -3.1 °C 30.16in /  1021.2hPa SE 6mph /  9.7km/h 9mph /  14.5km/h 80% 0.00in /  0mm 0 W/m2
05:00 31.8 °F /  -0.1 °C 26.4 °F /  -3.1 °C 30.16in /  1021.2hPa SE 5mph /  8km/h 9mph /  14.5km/h 80% 0.00in /  0mm 0 W/m2
05:10 31.8 °F /  -0.1 °C 26.4 °F /  -3.1 °C 30.15in /  1020.9hPa SE 3mph /  4.8km/h 8mph /  12.9km/h 80% 0.00in /  0mm 0 W/m2
05:20 31.6 °F /  -0.2 °C 26.2 °F /  -3.2 °C 30.16in /  1021.2hPa SE 2mph /  3.2km/h 9mph /  14.5km/h 80% 0.00in /  0mm 0 W/m2
05:30 31.5 °F /  -0.3 °C 26 °F /  -3.3 °C 30.16in /  1021.2hPa SSE 5mph /  8km/h 14mph /  22.5km/h 80% 0.00in /  0mm 0 W/m2
05:50 31.3 °F /  -0.4 °C 25.8 °F /  -3.4 °C 30.16in /  1021.2hPa SE 5mph /  8km/h 9mph /  14.5km/h 80% 0.00in /  0mm 0 W/m2
06:00 31.5 °F /  -0.3 °C 26 °F /  -3.3 °C 30.16in /  1021.2hPa SSE 3mph /  4.8km/h 6mph /  9.7km/h 80% 0.00in /  0mm 0 W/m2
06:10 31.6 °F /  -0.2 °C 26.2 °F /  -3.2 °C 30.17in /  1021.6hPa SE 3mph /  4.8km/h 9mph /  14.5km/h 80% 0.00in /  0mm 0 W/m2
06:20 31.5 °F /  -0.3 °C 26 °F /  -3.3 °C 30.17in /  1021.6hPa SSE 2mph /  3.2km/h 7mph /  11.3km/h 80% 0.00in /  0mm 0 W/m2
06:40 30.7 °F /  -0.7 °C 25.3 °F /  -3.7 °C 30.18in /  1021.9hPa SSE 1mph /  1.6km/h 6mph /  9.7km/h 80% 0.00in /  0mm 0 W/m2
06:50 30.4 °F /  -0.9 °C 24.9 °F /  -3.9 °C 30.18in /  1021.9hPa SW 1mph /  1.6km/h 3mph /  4.8km/h 80% 0.00in /  0mm 0 W/m2
07:00 30.2 °F /  -1 °C 25.1 °F /  -3.8 °C 30.18in /  1021.9hPa SE 3mph /  4.8km/h 7mph /  11.3km/h 81% 0.00in /  0mm 8 W/m2
07:10 30.2 °F /  -1 °C 25.1 °F /  -3.8 °C 30.18in /  1021.9hPa SE 3mph /  4.8km/h 12mph /  19.3km/h 81% 0.00in /  0mm 12 W/m2
07:20 30.1 °F /  -1.1 °C 25 °F /  -3.9 °C 30.18in /  1021.9hPa Calm   8mph /  12.9km/h 81% 0.00in /  0mm 24 W/m2
07:30 30.2 °F /  -1 °C 25.1 °F /  -3.8 °C 30.17in /  1021.6hPa South 3mph /  4.8km/h 7mph /  11.3km/h 81% 0.00in /  0mm 46 W/m2
07:40 30.7 °F /  -0.7 °C 25.6 °F /  -3.6 °C 30.18in /  1021.9hPa ESE 7mph /  11.3km/h 13mph /  20.9km/h 81% 0.00in /  0mm 66 W/m2
07:50 30.7 °F /  -0.7 °C 25.6 °F /  -3.6 °C 30.18in /  1021.9hPa SSE 5mph /  8km/h 13mph /  20.9km/h 81% 0.00in /  0mm 86 W/m2
08:00 31.3 °F /  -0.4 °C 26.1 °F /  -3.3 °C 30.19in /  1022.2hPa SE 8mph /  12.9km/h 12mph /  19.3km/h 81% 0.00in /  0mm 91 W/m2
Knjazevac, Serbia
Compliments of Weather Underground - 2 mb